createdAt,value
2017-07-11T00:00:46.946Z,98253.27
2017-07-11T00:03:16.381Z,98256.89
2017-07-11T00:05:45.835Z,98253.11
2017-07-11T00:08:15.289Z,98261.15
2017-07-11T00:10:44.731Z,98263.56
2017-07-11T00:13:14.024Z,98257.38
2017-07-11T00:15:43.290Z,98257.28
2017-07-11T00:18:12.730Z,98264.36
2017-07-11T00:20:42.194Z,98268.20
2017-07-11T00:23:11.661Z,98263.95
2017-07-11T00:25:41.101Z,98263.95
2017-07-11T00:28:10.540Z,98256.72
2017-07-11T00:30:40.048Z,98257.84
2017-07-11T00:33:09.500Z,98256.62
2017-07-11T00:35:38.926Z,98257.53
2017-07-11T00:38:08.379Z,98259.05
2017-07-11T00:40:37.823Z,98262.84
2017-07-11T00:43:07.267Z,98267.25
2017-07-11T00:45:36.714Z,98274.03
2017-07-11T00:48:06.173Z,98280.05
2017-07-11T00:50:35.621Z,98270.14
2017-07-11T00:53:04.886Z,98285.34
2017-07-11T00:55:34.342Z,98288.94
2017-07-11T00:58:04.814Z,98282.10
2017-07-11T01:00:34.253Z,98292.89
2017-07-11T01:03:03.707Z,98291.45
2017-07-11T01:05:33.153Z,98293.62
2017-07-11T01:08:02.619Z,98300.20
2017-07-11T01:10:32.073Z,98298.33
2017-07-11T01:13:01.562Z,98300.25
2017-07-11T01:15:31.022Z,98287.88
2017-07-11T01:18:00.480Z,98297.30
2017-07-11T01:20:29.943Z,98295.25
2017-07-11T01:22:59.385Z,98304.19
2017-07-11T01:25:28.825Z,98303.38
2017-07-11T01:27:58.278Z,98309.43
2017-07-11T01:30:27.726Z,98314.34
2017-07-11T01:32:57.170Z,98311.98
2017-07-11T01:35:26.631Z,98313.69
2017-07-11T01:37:56.087Z,98311.73
2017-07-11T01:40:25.550Z,98303.11
2017-07-11T01:42:54.991Z,98312.59
2017-07-11T01:45:24.447Z,98314.75
2017-07-11T01:47:53.916Z,98323.19
2017-07-11T01:50:23.358Z,98320.96
2017-07-11T01:52:52.806Z,98329.72
2017-07-11T01:55:22.246Z,98328.89
2017-07-11T01:57:51.727Z,98330.81
2017-07-11T02:00:20.810Z,98336.02
2017-07-11T02:02:50.085Z,98335.21
2017-07-11T02:05:19.196Z,98336.80
2017-07-11T02:07:48.653Z,98341.36
2017-07-11T02:10:18.123Z,98337.56
2017-07-11T02:12:47.580Z,98330.42
2017-07-11T02:15:17.022Z,98342.21
2017-07-11T02:17:46.481Z,98356.66
2017-07-11T02:20:15.938Z,98375.34
2017-07-11T02:22:45.373Z,98355.81
2017-07-11T02:25:14.817Z,98343.26
2017-07-11T02:27:44.285Z,98348.54
2017-07-11T02:30:13.730Z,98347.18
2017-07-11T02:32:43.275Z,98349.43
2017-07-11T02:35:12.721Z,98357.33
2017-07-11T02:37:42.165Z,98371.84
2017-07-11T02:40:11.605Z,98375.64
2017-07-11T02:42:41.078Z,98381.17
2017-07-11T02:45:10.526Z,98381.17
2017-07-11T02:47:39.965Z,98384.56
2017-07-11T02:50:09.414Z,98394.61
2017-07-11T02:52:38.860Z,98374.09
2017-07-11T02:55:08.344Z,98374.59
2017-07-11T02:57:37.791Z,98379.44
2017-07-11T03:00:07.230Z,98384.83
2017-07-11T03:02:36.487Z,98381.36
2017-07-11T03:05:05.925Z,98385.64
2017-07-11T03:07:35.372Z,98383.23
2017-07-11T03:10:04.810Z,98386.16
2017-07-11T03:12:34.294Z,98397.73
2017-07-11T03:15:03.727Z,98407.66
2017-07-11T03:17:33.172Z,98408.98
2017-07-11T03:20:02.646Z,98405.53
2017-07-11T03:22:32.110Z,98406.38
2017-07-11T03:25:01.550Z,98408.28
2017-07-11T03:27:30.998Z,98410.27
2017-07-11T03:30:00.438Z,98405.77
2017-07-11T03:32:29.725Z,98402.86
2017-07-11T03:34:59.181Z,98399.06
2017-07-11T03:37:28.629Z,98400.23
2017-07-11T03:39:58.065Z,98402.56
2017-07-11T03:42:27.520Z,98408.25
2017-07-11T03:44:56.970Z,98419.83
2017-07-11T03:47:26.410Z,98421.59
2017-07-11T03:49:55.866Z,98414.63
2017-07-11T03:52:25.321Z,98412.52
2017-07-11T03:54:54.755Z,98408.21
2017-07-11T03:57:24.201Z,98401.75
2017-07-11T03:59:53.997Z,98392.79
2017-07-11T04:02:23.719Z,98406.14
2017-07-11T04:04:53.190Z,98415.13
2017-07-11T04:07:22.649Z,98415.92
2017-07-11T04:09:52.101Z,98419.88
2017-07-11T04:12:21.537Z,98416.73
2017-07-11T04:14:51.063Z,98420.49
2017-07-11T04:17:20.898Z,98420.81
2017-07-11T04:19:50.350Z,98413.49
2017-07-11T04:22:19.648Z,98408.27
2017-07-11T04:24:49.078Z,98400.15
2017-07-11T04:27:18.720Z,98403.62
2017-07-11T04:29:48.165Z,98404.32
2017-07-11T04:32:17.607Z,98409.52
2017-07-11T04:34:47.060Z,98404.31
2017-07-11T04:37:16.521Z,98410.45
2017-07-11T04:39:45.953Z,98408.59
2017-07-11T04:42:15.409Z,98414.16
2017-07-11T04:44:44.878Z,98418.13
2017-07-11T04:47:14.309Z,98414.98
2017-07-11T04:49:43.759Z,98410.75
2017-07-11T04:52:13.213Z,98413.73
2017-07-11T04:54:42.671Z,98418.52
2017-07-11T04:57:12.108Z,98429.28
2017-07-11T04:59:41.578Z,98429.31
2017-07-11T05:02:11.017Z,98436.15
2017-07-11T05:04:40.463Z,98435.74
2017-07-11T05:07:09.910Z,98434.05
2017-07-11T05:09:39.365Z,98433.80
2017-07-11T05:12:08.813Z,98438.39
2017-07-11T05:14:38.257Z,98435.91
2017-07-11T05:17:07.706Z,98432.55
2017-07-11T05:19:37.153Z,98431.99
2017-07-11T05:22:06.613Z,98441.05
2017-07-11T05:24:36.058Z,98444.46
2017-07-11T05:27:05.773Z,98446.62
2017-07-11T05:29:35.246Z,98445.44
2017-07-11T05:32:04.701Z,98448.47
2017-07-11T05:34:34.157Z,98456.91
2017-07-11T05:37:03.616Z,98456.81
2017-07-11T05:39:33.061Z,98468.29
2017-07-11T05:42:02.525Z,98467.22
2017-07-11T05:44:32.000Z,98466.59
2017-07-11T05:47:01.418Z,98466.88
2017-07-11T05:49:30.869Z,98465.94
2017-07-11T05:52:00.318Z,98458.31
2017-07-11T05:54:29.754Z,98455.74
2017-07-11T05:56:59.205Z,98459.45
2017-07-11T05:59:28.654Z,98461.78
2017-07-11T06:01:58.110Z,98458.13
2017-07-11T06:04:27.598Z,98463.45
2017-07-11T06:06:57.026Z,98467.74
2017-07-11T06:09:26.469Z,98476.45
2017-07-11T06:11:55.912Z,98470.50
2017-07-11T06:14:25.359Z,98468.74
2017-07-11T06:16:54.855Z,98472.91
2017-07-11T06:19:24.293Z,98461.45
2017-07-11T06:21:53.747Z,98461.45
2017-07-11T06:24:23.189Z,98472.56
2017-07-11T06:26:54.190Z,98465.28
2017-07-11T06:29:23.641Z,98469.69
2017-07-11T06:31:53.088Z,98473.83
2017-07-11T06:34:22.525Z,98472.44
2017-07-11T06:36:53.053Z,98473.78
2017-07-11T06:39:22.496Z,98475.56
2017-07-11T06:41:51.961Z,98469.91
2017-07-11T06:44:21.423Z,98474.22
2017-07-11T06:46:50.869Z,98474.27
2017-07-11T06:49:20.326Z,98476.27
2017-07-11T06:51:49.791Z,98478.66
2017-07-11T06:54:19.260Z,98479.69
2017-07-11T06:56:48.720Z,98473.88
2017-07-11T06:59:18.182Z,98480.58
2017-07-11T07:01:47.634Z,98477.54
2017-07-11T07:04:17.082Z,98470.92
2017-07-11T07:06:46.514Z,98480.20
2017-07-11T07:09:15.953Z,98471.81
2017-07-11T07:11:45.411Z,98472.42
2017-07-11T07:14:14.863Z,98470.80
2017-07-11T07:16:44.314Z,98477.88
2017-07-11T07:19:13.777Z,98471.48
2017-07-11T07:21:43.239Z,98488.04
2017-07-11T07:24:12.686Z,98480.47
2017-07-11T07:26:42.137Z,98477.07
2017-07-11T07:29:11.606Z,98477.91
2017-07-11T07:31:41.167Z,98474.90
2017-07-11T07:34:10.642Z,98472.52
2017-07-11T07:36:40.072Z,98489.78
2017-07-11T07:39:09.541Z,98478.70
2017-07-11T07:41:38.986Z,98478.14
2017-07-11T07:44:08.426Z,98476.66
2017-07-11T07:46:37.884Z,98484.64
2017-07-11T07:49:07.338Z,98481.16
2017-07-11T07:51:36.797Z,98491.63
2017-07-11T07:54:06.239Z,98493.17
2017-07-11T07:56:35.691Z,98509.19
2017-07-11T07:59:05.124Z,98506.97
2017-07-11T08:01:34.630Z,98500.31
2017-07-11T08:04:04.083Z,98497.89
2017-07-11T08:06:33.526Z,98504.42
2017-07-11T08:09:02.971Z,98502.53
2017-07-11T08:11:32.429Z,98495.71
2017-07-11T08:14:01.879Z,98488.91
2017-07-11T08:16:31.331Z,98496.28
2017-07-11T08:19:00.766Z,98503.36
2017-07-11T08:21:30.210Z,98502.92
2017-07-11T08:23:59.670Z,98500.99
2017-07-11T08:26:29.106Z,98517.69
2017-07-11T08:28:58.553Z,98494.56
2017-07-11T08:31:28.001Z,98509.06
2017-07-11T08:33:57.458Z,98507.06
2017-07-11T08:36:26.919Z,98502.14
2017-07-11T08:38:56.379Z,98516.49
2017-07-11T08:41:25.828Z,98515.97
2017-07-11T08:43:55.256Z,98521.45
2017-07-11T08:46:24.719Z,98519.45
2017-07-11T08:48:54.179Z,98503.14
2017-07-11T08:51:23.622Z,98500.04
2017-07-11T08:53:53.086Z,98509.17
2017-07-11T08:56:22.529Z,98511.84
2017-07-11T08:58:52.401Z,98514.07
2017-07-11T09:01:21.842Z,98511.14
2017-07-11T09:03:51.291Z,98519.69
2017-07-11T09:06:20.737Z,98519.86
2017-07-11T09:08:50.226Z,98526.80
2017-07-11T09:11:19.682Z,98513.63
2017-07-11T09:13:49.118Z,98525.30
2017-07-11T09:16:18.567Z,98523.44
2017-07-11T09:25:35.254Z,98532.52
2017-07-11T09:28:04.756Z,98528.28
2017-07-11T09:30:34.407Z,98531.68
2017-07-11T09:33:03.860Z,98536.01
2017-07-11T09:35:33.327Z,98536.64
2017-07-11T09:38:02.792Z,98546.95
2017-07-11T09:40:32.277Z,98565.20
2017-07-11T09:43:01.735Z,98537.95
2017-07-11T09:45:31.181Z,98553.17
2017-07-11T09:48:00.625Z,98557.42
2017-07-11T09:50:30.069Z,98561.67
2017-07-11T09:52:59.517Z,98538.05
2017-07-11T09:55:28.961Z,98542.67
2017-07-11T09:57:58.552Z,98553.23
2017-07-11T10:00:28.018Z,98543.73
2017-07-11T10:02:57.287Z,98543.61
2017-07-11T10:05:26.743Z,98535.44
2017-07-11T10:07:56.188Z,98535.56
2017-07-11T10:10:25.630Z,98530.70
2017-07-11T10:12:55.078Z,98531.61
2017-07-11T10:15:24.530Z,98532.59
2017-07-11T10:17:53.982Z,98533.11
2017-07-11T10:20:23.434Z,98543.00
2017-07-11T10:22:52.896Z,98529.67
2017-07-11T10:25:22.360Z,98530.59
2017-07-11T10:27:51.806Z,98530.25
2017-07-11T10:30:21.242Z,98530.50
2017-07-11T10:32:50.693Z,98522.37
2017-07-11T10:35:20.143Z,98542.23
2017-07-11T10:37:49.617Z,98543.80
2017-07-11T10:40:19.057Z,98533.02
2017-07-11T10:42:48.511Z,98527.31
2017-07-11T10:45:17.967Z,98514.71
2017-07-11T10:47:47.417Z,98523.61
2017-07-11T10:50:16.877Z,98505.47
2017-07-11T10:52:46.352Z,98506.28
2017-07-11T10:55:15.807Z,98509.07
2017-07-11T10:57:45.261Z,98500.70
2017-07-11T11:00:14.707Z,98505.47
2017-07-11T11:02:44.199Z,98508.68
2017-07-11T11:05:13.654Z,98497.22
2017-07-11T11:07:43.103Z,98498.89
2017-07-11T11:10:12.567Z,98506.56
2017-07-11T11:12:42.024Z,98512.73
2017-07-11T11:15:11.489Z,98497.63
2017-07-11T11:17:40.947Z,98506.23
2017-07-11T11:20:10.509Z,98505.44
2017-07-11T11:22:39.938Z,98518.80
2017-07-11T11:25:09.401Z,98532.89
2017-07-11T11:27:38.853Z,98512.15
2017-07-11T11:30:08.305Z,98507.72
2017-07-11T11:32:37.578Z,98503.36
2017-07-11T11:35:07.075Z,98513.35
2017-07-11T11:37:36.517Z,98504.78
2017-07-11T11:40:05.974Z,98518.85
2017-07-11T11:42:35.443Z,98494.84
2017-07-11T11:45:04.880Z,98493.53
2017-07-11T11:47:34.170Z,98490.47
2017-07-11T11:50:03.612Z,98503.22
2017-07-11T11:52:33.050Z,98499.33
2017-07-11T11:55:02.513Z,98500.05
2017-07-11T11:57:31.963Z,98487.36
2017-07-11T12:00:01.401Z,98488.62
2017-07-11T12:02:30.882Z,98469.41
2017-07-11T12:05:00.340Z,98492.69
2017-07-11T12:07:29.776Z,98491.80
2017-07-11T12:09:59.392Z,98466.63
2017-07-11T12:12:28.869Z,98471.62
2017-07-11T12:14:58.318Z,98489.16
2017-07-11T12:17:27.792Z,98499.31
2017-07-11T12:19:57.233Z,98474.90
2017-07-11T12:22:26.676Z,98467.41
2017-07-11T12:24:56.140Z,98465.81
2017-07-11T12:27:25.593Z,98460.98
2017-07-11T12:29:55.042Z,98454.34
2017-07-11T12:32:24.496Z,98460.27
2017-07-11T12:34:54.019Z,98472.92
2017-07-11T12:37:23.465Z,98467.16
2017-07-11T12:39:53.035Z,98454.42
2017-07-11T12:42:22.486Z,98448.13
2017-07-11T12:44:51.914Z,98454.08
2017-07-11T12:47:21.366Z,98464.56
2017-07-11T12:49:50.831Z,98476.72
2017-07-11T12:52:20.468Z,98465.09
2017-07-11T12:54:49.995Z,98444.54
2017-07-11T12:57:19.423Z,98445.53
2017-07-11T12:59:48.898Z,98458.50
2017-07-11T13:02:18.357Z,98440.95
2017-07-11T13:04:47.798Z,98445.55
2017-07-11T13:07:17.253Z,98441.16
2017-07-11T13:09:46.705Z,98433.95
2017-07-11T13:12:16.167Z,98435.36
2017-07-11T13:14:45.633Z,98437.51
2017-07-11T13:17:15.096Z,98428.99
2017-07-11T13:19:44.559Z,98440.00
2017-07-11T13:22:14.277Z,98430.62
2017-07-11T13:24:43.726Z,98426.16
2017-07-11T13:27:13.169Z,98412.48
2017-07-11T13:29:42.674Z,98420.34
2017-07-11T13:32:12.146Z,98410.24
2017-07-11T13:34:41.244Z,98423.00
2017-07-11T13:37:10.683Z,98411.36
2017-07-11T13:39:40.242Z,98408.97
2017-07-11T13:42:09.683Z,98415.13
2017-07-11T13:44:39.118Z,98410.20
2017-07-11T13:47:08.592Z,98407.91
2017-07-11T13:49:38.055Z,98399.22
2017-07-11T13:52:07.362Z,98403.51
2017-07-11T13:54:36.790Z,98409.59
2017-07-11T13:57:06.242Z,98413.87
2017-07-11T13:59:35.681Z,98398.27
2017-07-11T14:02:05.204Z,98398.57
2017-07-11T14:04:34.653Z,98402.14
2017-07-11T14:07:04.106Z,98407.23
2017-07-11T14:09:33.589Z,98401.52
2017-07-11T14:12:03.051Z,98399.28
2017-07-11T14:14:32.491Z,98420.08
2017-07-11T14:17:01.961Z,98398.86
2017-07-11T14:19:31.425Z,98413.53
2017-07-11T14:22:00.862Z,98403.88
2017-07-11T14:24:30.341Z,98407.67
2017-07-11T14:26:59.774Z,98407.05
2017-07-11T14:29:29.222Z,98407.69
2017-07-11T14:31:58.676Z,98396.87
2017-07-11T14:34:28.132Z,98393.01
2017-07-11T14:36:57.586Z,98391.58
2017-07-11T14:39:27.057Z,98401.69
2017-07-11T14:41:56.584Z,98398.26
2017-07-11T14:44:26.060Z,98396.55
2017-07-11T14:46:55.517Z,98387.36
2017-07-11T14:49:24.961Z,98385.74
2017-07-11T14:51:54.417Z,98399.86
2017-07-11T14:54:23.893Z,98386.92
2017-07-11T14:56:53.324Z,98386.80
2017-07-11T14:59:22.789Z,98383.51
2017-07-11T15:01:52.242Z,98377.44
2017-07-11T15:04:21.706Z,98376.55
2017-07-11T15:06:51.166Z,98362.48
2017-07-11T15:09:20.632Z,98363.03
2017-07-11T15:11:50.141Z,98362.06
2017-07-11T15:14:19.593Z,98351.42
2017-07-11T15:16:49.083Z,98344.31
2017-07-11T15:19:18.527Z,98342.53
2017-07-11T15:21:48.041Z,98341.06
2017-07-11T15:24:17.634Z,98330.23
2017-07-11T15:26:47.092Z,98334.84
2017-07-11T15:29:16.547Z,98323.17
2017-07-11T15:31:45.991Z,98319.95
2017-07-11T15:34:15.458Z,98306.28
2017-07-11T15:36:44.919Z,98325.83
2017-07-11T15:39:14.376Z,98313.84
2017-07-11T15:41:43.819Z,98320.28
2017-07-11T15:44:13.262Z,98324.36
2017-07-11T15:46:42.728Z,98318.59
2017-07-11T15:49:12.173Z,98327.83
2017-07-11T15:51:41.658Z,98320.70
2017-07-11T15:54:11.117Z,98326.04
2017-07-11T15:56:40.579Z,98322.89
2017-07-11T15:59:10.037Z,98329.83
2017-07-11T16:01:39.478Z,98317.98
2017-07-11T16:04:08.934Z,98312.55
2017-07-11T16:06:38.386Z,98321.10
2017-07-11T16:09:07.839Z,98305.81
2017-07-11T16:11:37.297Z,98303.38
2017-07-11T16:14:06.817Z,98298.08
2017-07-11T16:16:36.258Z,98299.81
2017-07-11T16:19:05.703Z,98302.25
2017-07-11T16:21:35.138Z,98304.25
2017-07-11T16:24:04.592Z,98297.58
2017-07-11T16:26:34.049Z,98301.37
2017-07-11T16:29:03.481Z,98295.48
2017-07-11T16:31:32.928Z,98310.05
2017-07-11T16:34:02.382Z,98312.14
2017-07-11T16:36:31.824Z,98306.53
2017-07-11T16:39:02.036Z,98307.70
2017-07-11T16:41:31.518Z,98307.23
2017-07-11T16:44:00.991Z,98309.28
2017-07-11T16:46:30.534Z,98312.13
2017-07-11T16:49:00.009Z,98314.38
2017-07-11T16:51:29.461Z,98307.47
2017-07-11T16:53:58.924Z,98319.93
2017-07-11T16:56:28.357Z,98313.39
2017-07-11T16:58:57.820Z,98308.84
2017-07-11T17:01:27.278Z,98315.38
2017-07-11T17:03:56.731Z,98313.45
2017-07-11T17:06:26.180Z,98312.33
2017-07-11T17:08:55.644Z,98315.93
2017-07-11T17:11:25.096Z,98318.55
2017-07-11T17:13:54.677Z,98321.03
2017-07-11T17:16:24.123Z,98324.70
2017-07-11T17:18:53.564Z,98331.05
2017-07-11T17:21:23.052Z,98325.53
2017-07-11T17:23:52.490Z,98317.66
2017-07-11T17:26:21.975Z,98325.11
2017-07-11T17:28:51.428Z,98332.31
2017-07-11T17:31:20.875Z,98330.77
2017-07-11T17:33:50.353Z,98327.98
2017-07-11T17:36:19.810Z,98328.94
2017-07-11T17:38:49.254Z,98338.57
2017-07-11T17:41:18.695Z,98340.55
2017-07-11T17:43:48.142Z,98343.62
2017-07-11T17:46:17.609Z,98347.66
2017-07-11T17:48:47.090Z,98347.30
2017-07-11T17:51:16.339Z,98351.48
2017-07-11T17:53:45.805Z,98348.44
2017-07-11T17:56:15.245Z,98347.20
2017-07-11T17:58:44.733Z,98344.72
2017-07-11T18:01:14.189Z,98350.88
2017-07-11T18:03:43.634Z,98354.70
2017-07-11T18:06:13.083Z,98362.13
2017-07-11T18:08:42.541Z,98362.49
2017-07-11T18:11:11.978Z,98356.02
2017-07-11T18:13:41.419Z,98354.73
2017-07-11T18:16:10.885Z,98360.43
2017-07-11T18:18:40.325Z,98362.95
2017-07-11T18:21:09.923Z,98364.87
2017-07-11T18:23:39.377Z,98368.42
2017-07-11T18:26:08.826Z,98363.91
2017-07-11T18:28:38.269Z,98365.89
2017-07-11T18:31:07.730Z,98368.95
2017-07-11T18:33:37.284Z,98375.48
2017-07-11T18:36:06.846Z,98370.45
2017-07-11T18:38:36.314Z,98371.50
2017-07-11T18:41:06.049Z,98368.25
2017-07-11T18:43:35.573Z,98369.20
2017-07-11T18:46:05.091Z,98368.00
2017-07-11T18:48:34.532Z,98371.75
2017-07-11T18:51:03.978Z,98360.03
2017-07-11T18:53:33.439Z,98367.73
2017-07-11T18:56:02.897Z,98375.69
2017-07-11T18:58:32.348Z,98372.74
2017-07-11T19:01:01.793Z,98376.83
2017-07-11T19:03:31.249Z,98373.06
2017-07-11T19:06:00.731Z,98368.03
2017-07-11T19:08:30.169Z,98371.67
2017-07-11T19:10:59.631Z,98374.97
2017-07-11T19:13:29.098Z,98375.19
2017-07-11T19:15:58.549Z,98375.66
2017-07-11T19:18:28.020Z,98382.50
2017-07-11T19:20:57.476Z,98383.94
2017-07-11T19:23:26.937Z,98385.11
2017-07-11T19:25:56.388Z,98391.63
2017-07-11T19:28:25.862Z,98393.50
2017-07-11T19:30:55.352Z,98398.89
2017-07-11T19:33:24.807Z,98403.62
2017-07-11T19:35:54.273Z,98403.94
2017-07-11T19:38:23.750Z,98403.49
2017-07-11T19:40:53.200Z,98402.02
2017-07-11T19:43:22.657Z,98406.34
2017-07-11T19:45:52.267Z,98401.95
2017-07-11T19:48:21.734Z,98414.95
2017-07-11T19:50:51.190Z,98426.87
2017-07-11T19:53:20.707Z,98426.92
2017-07-11T19:55:50.148Z,98423.69
2017-07-11T19:58:19.590Z,98427.61
2017-07-11T20:00:49.060Z,98425.58
2017-07-11T20:03:18.506Z,98428.75
2017-07-11T20:05:47.967Z,98438.24
2017-07-11T20:08:17.428Z,98436.48
2017-07-11T20:10:46.884Z,98434.75
2017-07-11T20:13:16.335Z,98434.55
2017-07-11T20:15:45.787Z,98435.31
2017-07-11T20:18:15.238Z,98433.57
2017-07-11T20:20:44.687Z,98441.09
2017-07-11T20:23:14.133Z,98440.39
2017-07-11T20:25:43.579Z,98438.77
2017-07-11T20:28:13.018Z,98440.55
2017-07-11T20:30:42.468Z,98442.59
2017-07-11T20:33:11.965Z,98438.97
2017-07-11T20:35:41.387Z,98433.32
2017-07-11T20:38:10.846Z,98436.78
2017-07-11T20:40:40.299Z,98436.53
2017-07-11T20:43:09.758Z,98448.01
2017-07-11T20:45:39.225Z,98450.60
2017-07-11T20:48:08.659Z,98452.95
2017-07-11T20:50:38.156Z,98454.41
2017-07-11T20:53:07.601Z,98454.97
2017-07-11T20:55:37.054Z,98454.98
2017-07-11T20:58:06.508Z,98454.67
2017-07-11T21:00:35.976Z,98457.16
2017-07-11T21:03:05.452Z,98452.48
2017-07-11T21:05:34.886Z,98452.27
2017-07-11T21:08:04.346Z,98459.43
2017-07-11T21:10:33.801Z,98461.30
2017-07-11T21:13:03.252Z,98458.16
2017-07-11T21:15:32.723Z,98459.83
2017-07-11T21:18:02.178Z,98463.88
2017-07-11T21:20:31.620Z,98459.42
2017-07-11T21:23:01.090Z,98459.05
2017-07-11T21:25:30.663Z,98474.74
2017-07-11T21:28:00.115Z,98473.77
2017-07-11T21:30:29.566Z,98469.06
2017-07-11T21:32:59.012Z,98476.05
2017-07-11T21:35:28.458Z,98471.78
2017-07-11T21:37:57.933Z,98472.52
2017-07-11T21:40:27.404Z,98471.06
2017-07-11T21:42:56.864Z,98474.28
2017-07-11T21:45:26.338Z,98473.41
2017-07-11T21:47:55.787Z,98463.27
2017-07-11T21:50:25.243Z,98470.37
2017-07-11T21:52:54.686Z,98483.05
2017-07-11T21:55:24.117Z,98486.11
2017-07-11T21:57:53.570Z,98490.19
2017-07-11T22:00:23.130Z,98500.44
2017-07-11T22:02:52.409Z,98504.61
2017-07-11T22:05:21.855Z,98507.53
2017-07-11T22:07:51.306Z,98505.10
2017-07-11T22:10:20.755Z,98504.85
2017-07-11T22:12:50.201Z,98511.72
2017-07-11T22:15:19.667Z,98518.17
2017-07-11T22:17:49.360Z,98514.56
2017-07-11T22:20:18.809Z,98521.98
2017-07-11T22:22:48.266Z,98515.53
2017-07-11T22:25:17.733Z,98509.17
2017-07-11T22:27:47.183Z,98506.93
2017-07-11T22:30:16.635Z,98512.07
2017-07-11T22:32:46.080Z,98512.81
2017-07-11T22:35:15.522Z,98522.81
2017-07-11T22:37:44.969Z,98511.70
2017-07-11T22:40:15.374Z,98518.30
2017-07-11T22:42:44.829Z,98520.16
2017-07-11T22:45:14.273Z,98520.25
2017-07-11T22:47:43.735Z,98515.57
2017-07-11T22:50:13.172Z,98520.64
2017-07-11T22:52:42.609Z,98516.99
2017-07-11T22:55:11.917Z,98522.95
2017-07-11T22:57:41.381Z,98524.78
2017-07-11T23:00:10.818Z,98524.27
2017-07-11T23:02:40.387Z,98524.84
2017-07-11T23:05:09.846Z,98521.04
2017-07-11T23:07:39.298Z,98523.62
2017-07-11T23:10:08.765Z,98517.41
2017-07-11T23:12:38.217Z,98522.78
2017-07-11T23:15:07.678Z,98517.38
2017-07-11T23:17:37.126Z,98518.17
2017-07-11T23:20:06.570Z,98514.05
2017-07-11T23:22:36.053Z,98521.78
2017-07-11T23:25:05.534Z,98515.80
2017-07-11T23:27:34.972Z,98505.81
2017-07-11T23:30:04.423Z,98510.14
2017-07-11T23:32:33.866Z,98493.90
2017-07-11T23:35:03.305Z,98499.55
2017-07-11T23:37:32.577Z,98493.24
2017-07-11T23:40:02.052Z,98494.29
2017-07-11T23:42:31.557Z,98498.03
2017-07-11T23:45:00.994Z,98496.66
2017-07-11T23:47:30.429Z,98498.46
2017-07-11T23:49:59.879Z,98501.05
2017-07-11T23:52:29.330Z,98501.02
2017-07-11T23:54:58.785Z,98507.32
2017-07-11T23:57:28.241Z,98499.49
2017-07-11T23:59:57.692Z,98511.80
